sensor_id;sensor_type;location;lat;lon;timestamp;P1;durP1;ratioP1;P2;durP2;ratioP2
39016;SDS011;24784;45.582;5.276;2023-04-03T00:02:07;8.07;;;4.78;;
39016;SDS011;24784;45.582;5.276;2023-04-03T00:04:33;10.10;;;5.03;;
39016;SDS011;24784;45.582;5.276;2023-04-03T00:06:59;8.13;;;4.75;;
39016;SDS011;24784;45.582;5.276;2023-04-03T00:09:25;11.50;;;5.20;;
39016;SDS011;24784;45.582;5.276;2023-04-03T00:11:51;7.78;;;4.75;;
39016;SDS011;24784;45.582;5.276;2023-04-03T00:14:17;8.85;;;5.05;;
39016;SDS011;24784;45.582;5.276;2023-04-03T00:16:43;7.35;;;4.72;;
39016;SDS011;24784;45.582;5.276;2023-04-03T00:19:08;7.22;;;4.32;;
39016;SDS011;24784;45.582;5.276;2023-04-03T00:21:36;12.13;;;4.47;;
39016;SDS011;24784;45.582;5.276;2023-04-03T00:24:02;10.10;;;4.97;;
39016;SDS011;24784;45.582;5.276;2023-04-03T00:26:28;12.38;;;6.28;;
39016;SDS011;24784;45.582;5.276;2023-04-03T00:28:54;9.50;;;4.97;;
39016;SDS011;24784;45.582;5.276;2023-04-03T00:31:21;8.75;;;5.10;;
39016;SDS011;24784;45.582;5.276;2023-04-03T00:33:46;10.60;;;5.40;;
39016;SDS011;24784;45.582;5.276;2023-04-03T00:36:12;9.45;;;5.18;;
39016;SDS011;24784;45.582;5.276;2023-04-03T00:38:39;15.90;;;6.95;;
39016;SDS011;24784;45.582;5.276;2023-04-03T00:41:05;9.10;;;5.63;;
39016;SDS011;24784;45.582;5.276;2023-04-03T00:43:32;14.15;;;6.13;;
39016;SDS011;24784;45.582;5.276;2023-04-03T00:45:58;8.55;;;5.50;;
39016;SDS011;24784;45.582;5.276;2023-04-03T00:48:26;9.00;;;6.05;;
39016;SDS011;24784;45.582;5.276;2023-04-03T00:50:59;9.27;;;6.00;;
39016;SDS011;24784;45.582;5.276;2023-04-03T00:53:27;12.35;;;5.78;;
39016;SDS011;24784;45.582;5.276;2023-04-03T00:55:58;11.50;;;5.80;;
39016;SDS011;24784;45.582;5.276;2023-04-03T00:58:28;9.57;;;5.75;;
39016;SDS011;24784;45.582;5.276;2023-04-03T01:00:59;7.82;;;5.25;;
39016;SDS011;24784;45.582;5.276;2023-04-03T01:03:31;11.60;;;5.50;;
39016;SDS011;24784;45.582;5.276;2023-04-03T01:05:57;11.45;;;5.90;;
39016;SDS011;24784;45.582;5.276;2023-04-03T01:08:23;10.32;;;5.20;;
39016;SDS011;24784;45.582;5.276;2023-04-03T01:10:49;13.57;;;5.40;;
39016;SDS011;24784;45.582;5.276;2023-04-03T01:13:24;10.02;;;5.18;;
39016;SDS011;24784;45.582;5.276;2023-04-03T01:15:53;10.98;;;6.13;;
39016;SDS011;24784;45.582;5.276;2023-04-03T01:18:19;8.63;;;5.40;;
39016;SDS011;24784;45.582;5.276;2023-04-03T01:20:50;10.63;;;5.70;;
39016;SDS011;24784;45.582;5.276;2023-04-03T01:24:05;12.82;;;5.30;;
39016;SDS011;24784;45.582;5.276;2023-04-03T01:26:35;14.23;;;5.80;;
39016;SDS011;24784;45.582;5.276;2023-04-03T01:29:01;9.20;;;5.45;;
39016;SDS011;24784;45.582;5.276;2023-04-03T01:31:31;7.68;;;5.22;;
39016;SDS011;24784;45.582;5.276;2023-04-03T01:34:17;7.25;;;5.13;;
39016;SDS011;24784;45.582;5.276;2023-04-03T01:36:43;11.32;;;5.38;;
39016;SDS011;24784;45.582;5.276;2023-04-03T01:39:09;8.35;;;5.05;;
39016;SDS011;24784;45.582;5.276;2023-04-03T01:41:35;7.90;;;4.60;;
39016;SDS011;24784;45.582;5.276;2023-04-03T01:44:01;11.45;;;5.18;;
39016;SDS011;24784;45.582;5.276;2023-04-03T01:46:29;8.75;;;5.18;;
39016;SDS011;24784;45.582;5.276;2023-04-03T01:48:55;11.05;;;4.90;;
39016;SDS011;24784;45.582;5.276;2023-04-03T01:51:20;7.22;;;4.43;;
39016;SDS011;24784;45.582;5.276;2023-04-03T01:53:46;6.53;;;4.32;;
39016;SDS011;24784;45.582;5.276;2023-04-03T01:56:12;8.07;;;3.78;;
39016;SDS011;24784;45.582;5.276;2023-04-03T01:58:38;5.88;;;4.05;;
39016;SDS011;24784;45.582;5.276;2023-04-03T02:01:04;5.90;;;3.90;;
39016;SDS011;24784;45.582;5.276;2023-04-03T02:03:30;5.53;;;3.85;;
39016;SDS011;24784;45.582;5.276;2023-04-03T02:05:57;7.43;;;3.97;;
39016;SDS011;24784;45.582;5.276;2023-04-03T02:08:23;6.07;;;4.35;;
39016;SDS011;24784;45.582;5.276;2023-04-03T02:10:49;6.03;;;4.20;;
39016;SDS011;24784;45.582;5.276;2023-04-03T02:13:16;5.32;;;3.60;;
39016;SDS011;24784;45.582;5.276;2023-04-03T02:15:42;5.13;;;3.55;;
39016;SDS011;24784;45.582;5.276;2023-04-03T02:18:09;10.02;;;4.30;;
39016;SDS011;24784;45.582;5.276;2023-04-03T02:20:35;8.13;;;4.20;;
39016;SDS011;24784;45.582;5.276;2023-04-03T02:23:00;7.63;;;3.92;;
39016;SDS011;24784;45.582;5.276;2023-04-03T02:25:26;7.28;;;3.30;;
39016;SDS011;24784;45.582;5.276;2023-04-03T02:27:52;7.53;;;3.33;;
39016;SDS011;24784;45.582;5.276;2023-04-03T02:30:18;5.32;;;3.72;;
39016;SDS011;24784;45.582;5.276;2023-04-03T02:32:44;5.47;;;3.90;;
39016;SDS011;24784;45.582;5.276;2023-04-03T02:35:11;6.47;;;3.60;;
39016;SDS011;24784;45.582;5.276;2023-04-03T02:37:37;5.57;;;3.33;;
39016;SDS011;24784;45.582;5.276;2023-04-03T02:40:03;5.90;;;3.45;;
39016;SDS011;24784;45.582;5.276;2023-04-03T02:42:31;5.75;;;4.45;;
39016;SDS011;24784;45.582;5.276;2023-04-03T02:44:58;7.95;;;4.03;;
39016;SDS011;24784;45.582;5.276;2023-04-03T02:47:25;5.55;;;3.17;;
39016;SDS011;24784;45.582;5.276;2023-04-03T02:49:52;4.35;;;3.65;;
39016;SDS011;24784;45.582;5.276;2023-04-03T02:52:17;5.97;;;4.03;;
39016;SDS011;24784;45.582;5.276;2023-04-03T02:54:43;7.78;;;4.20;;
39016;SDS011;24784;45.582;5.276;2023-04-03T02:57:09;4.85;;;3.80;;
39016;SDS011;24784;45.582;5.276;2023-04-03T02:59:36;10.80;;;4.93;;
39016;SDS011;24784;45.582;5.276;2023-04-03T03:02:05;5.22;;;4.05;;
39016;SDS011;24784;45.582;5.276;2023-04-03T03:04:34;5.72;;;4.70;;
39016;SDS011;24784;45.582;5.276;2023-04-03T03:07:00;8.70;;;4.57;;
39016;SDS011;24784;45.582;5.276;2023-04-03T03:09:26;10.95;;;4.45;;
39016;SDS011;24784;45.582;5.276;2023-04-03T03:11:52;4.95;;;4.00;;
39016;SDS011;24784;45.582;5.276;2023-04-03T03:14:18;17.52;;;6.90;;
39016;SDS011;24784;45.582;5.276;2023-04-03T03:16:43;6.93;;;3.83;;
39016;SDS011;24784;45.582;5.276;2023-04-03T03:19:09;6.70;;;4.05;;
39016;SDS011;24784;45.582;5.276;2023-04-03T03:21:35;4.75;;;3.80;;
39016;SDS011;24784;45.582;5.276;2023-04-03T03:24:01;7.38;;;4.07;;
39016;SDS011;24784;45.582;5.276;2023-04-03T03:26:27;7.82;;;4.22;;
39016;SDS011;24784;45.582;5.276;2023-04-03T03:28:53;5.82;;;4.43;;
39016;SDS011;24784;45.582;5.276;2023-04-03T03:31:19;9.43;;;4.05;;
39016;SDS011;24784;45.582;5.276;2023-04-03T03:33:45;6.40;;;4.38;;
39016;SDS011;24784;45.582;5.276;2023-04-03T03:36:13;6.38;;;4.40;;
39016;SDS011;24784;45.582;5.276;2023-04-03T03:38:39;8.32;;;4.68;;
39016;SDS011;24784;45.582;5.276;2023-04-03T03:41:05;6.85;;;4.70;;
39016;SDS011;24784;45.582;5.276;2023-04-03T03:43:31;6.95;;;4.47;;
39016;SDS011;24784;45.582;5.276;2023-04-03T03:45:57;6.50;;;4.88;;
39016;SDS011;24784;45.582;5.276;2023-04-03T03:48:23;7.15;;;4.95;;
39016;SDS011;24784;45.582;5.276;2023-04-03T03:50:49;6.32;;;4.78;;
39016;SDS011;24784;45.582;5.276;2023-04-03T03:53:15;7.38;;;5.10;;
39016;SDS011;24784;45.582;5.276;2023-04-03T03:55:41;6.32;;;4.75;;
39016;SDS011;24784;45.582;5.276;2023-04-03T03:58:07;7.18;;;5.13;;
39016;SDS011;24784;45.582;5.276;2023-04-03T04:00:33;7.10;;;4.85;;
39016;SDS011;24784;45.582;5.276;2023-04-03T04:02:59;6.70;;;5.32;;
39016;SDS011;24784;45.582;5.276;2023-04-03T04:05:25;7.90;;;5.22;;
39016;SDS011;24784;45.582;5.276;2023-04-03T04:07:51;7.25;;;5.38;;
39016;SDS011;24784;45.582;5.276;2023-04-03T04:10:17;7.43;;;4.72;;
39016;SDS011;24784;45.582;5.276;2023-04-03T04:12:42;6.80;;;5.15;;
39016;SDS011;24784;45.582;5.276;2023-04-03T04:15:08;6.55;;;4.88;;
39016;SDS011;24784;45.582;5.276;2023-04-03T04:17:35;7.05;;;4.78;;
39016;SDS011;24784;45.582;5.276;2023-04-03T04:20:01;6.40;;;4.75;;
39016;SDS011;24784;45.582;5.276;2023-04-03T04:22:30;7.07;;;5.32;;
39016;SDS011;24784;45.582;5.276;2023-04-03T04:24:56;6.90;;;5.30;;
39016;SDS011;24784;45.582;5.276;2023-04-03T04:27:21;7.53;;;5.15;;
39016;SDS011;24784;45.582;5.276;2023-04-03T04:29:47;5.93;;;4.43;;
39016;SDS011;24784;45.582;5.276;2023-04-03T04:32:13;7.20;;;5.03;;
39016;SDS011;24784;45.582;5.276;2023-04-03T04:34:39;9.27;;;5.13;;
39016;SDS011;24784;45.582;5.276;2023-04-03T04:37:05;10.10;;;5.35;;
39016;SDS011;24784;45.582;5.276;2023-04-03T04:39:31;9.73;;;5.68;;
39016;SDS011;24784;45.582;5.276;2023-04-03T04:41:56;7.60;;;5.45;;
39016;SDS011;24784;45.582;5.276;2023-04-03T04:44:22;10.68;;;7.00;;
39016;SDS011;24784;45.582;5.276;2023-04-03T04:46:48;10.50;;;6.30;;
39016;SDS011;24784;45.582;5.276;2023-04-03T04:49:14;7.63;;;5.72;;
39016;SDS011;24784;45.582;5.276;2023-04-03T04:51:40;8.15;;;5.90;;
39016;SDS011;24784;45.582;5.276;2023-04-03T04:54:05;9.50;;;5.95;;
39016;SDS011;24784;45.582;5.276;2023-04-03T04:56:31;7.78;;;6.10;;
39016;SDS011;24784;45.582;5.276;2023-04-03T04:58:57;9.07;;;6.72;;
39016;SDS011;24784;45.582;5.276;2023-04-03T05:01:23;8.50;;;6.47;;
39016;SDS011;24784;45.582;5.276;2023-04-03T05:03:49;10.18;;;7.22;;
39016;SDS011;24784;45.582;5.276;2023-04-03T05:06:15;10.77;;;6.97;;
39016;SDS011;24784;45.582;5.276;2023-04-03T05:08:40;8.57;;;6.63;;
39016;SDS011;24784;45.582;5.276;2023-04-03T05:11:06;11.60;;;6.55;;
39016;SDS011;24784;45.582;5.276;2023-04-03T05:13:32;15.52;;;6.47;;
39016;SDS011;24784;45.582;5.276;2023-04-03T05:15:58;8.38;;;6.15;;
39016;SDS011;24784;45.582;5.276;2023-04-03T05:18:24;8.02;;;5.65;;
39016;SDS011;24784;45.582;5.276;2023-04-03T05:20:50;9.65;;;5.68;;
39016;SDS011;24784;45.582;5.276;2023-04-03T05:23:16;8.82;;;5.50;;
39016;SDS011;24784;45.582;5.276;2023-04-03T05:25:42;7.53;;;5.75;;
39016;SDS011;24784;45.582;5.276;2023-04-03T05:28:10;8.55;;;6.45;;
39016;SDS011;24784;45.582;5.276;2023-04-03T05:30:36;16.13;;;6.80;;
39016;SDS011;24784;45.582;5.276;2023-04-03T05:33:02;8.95;;;6.30;;
39016;SDS011;24784;45.582;5.276;2023-04-03T05:35:27;9.00;;;5.85;;
39016;SDS011;24784;45.582;5.276;2023-04-03T05:37:54;9.75;;;5.47;;
39016;SDS011;24784;45.582;5.276;2023-04-03T05:40:19;7.70;;;5.80;;
39016;SDS011;24784;45.582;5.276;2023-04-03T05:42:45;7.50;;;5.50;;
39016;SDS011;24784;45.582;5.276;2023-04-03T05:45:11;7.32;;;5.50;;
39016;SDS011;24784;45.582;5.276;2023-04-03T05:47:37;7.10;;;4.95;;
39016;SDS011;24784;45.582;5.276;2023-04-03T05:50:03;8.38;;;5.97;;
39016;SDS011;24784;45.582;5.276;2023-04-03T05:52:31;9.15;;;6.00;;
39016;SDS011;24784;45.582;5.276;2023-04-03T05:55:00;9.23;;;7.07;;
39016;SDS011;24784;45.582;5.276;2023-04-03T05:57:27;9.45;;;7.00;;
39016;SDS011;24784;45.582;5.276;2023-04-03T05:59:52;11.32;;;8.20;;
39016;SDS011;24784;45.582;5.276;2023-04-03T06:02:21;10.20;;;7.45;;
39016;SDS011;24784;45.582;5.276;2023-04-03T06:04:47;10.63;;;7.65;;
39016;SDS011;24784;45.582;5.276;2023-04-03T06:07:15;11.75;;;6.70;;
39016;SDS011;24784;45.582;5.276;2023-04-03T06:09:49;9.27;;;6.78;;
39016;SDS011;24784;45.582;5.276;2023-04-03T06:12:18;8.93;;;7.05;;
39016;SDS011;24784;45.582;5.276;2023-04-03T06:14:44;11.30;;;7.47;;
39016;SDS011;24784;45.582;5.276;2023-04-03T06:17:10;11.05;;;7.60;;
39016;SDS011;24784;45.582;5.276;2023-04-03T06:19:37;12.73;;;8.10;;
39016;SDS011;24784;45.582;5.276;2023-04-03T06:22:03;13.00;;;7.65;;
39016;SDS011;24784;45.582;5.276;2023-04-03T06:24:29;10.02;;;7.03;;
39016;SDS011;24784;45.582;5.276;2023-04-03T06:26:56;10.35;;;7.38;;
39016;SDS011;24784;45.582;5.276;2023-04-03T06:29:22;11.25;;;7.72;;
39016;SDS011;24784;45.582;5.276;2023-04-03T06:31:49;14.05;;;9.38;;
39016;SDS011;24784;45.582;5.276;2023-04-03T06:34:16;14.07;;;9.65;;
39016;SDS011;24784;45.582;5.276;2023-04-03T06:36:43;13.52;;;9.50;;
39016;SDS011;24784;45.582;5.276;2023-04-03T06:39:13;13.35;;;9.20;;
39016;SDS011;24784;45.582;5.276;2023-04-03T06:41:41;13.73;;;9.25;;
39016;SDS011;24784;45.582;5.276;2023-04-03T06:44:08;13.23;;;8.55;;
39016;SDS011;24784;45.582;5.276;2023-04-03T06:46:36;15.07;;;8.48;;
39016;SDS011;24784;45.582;5.276;2023-04-03T06:49:02;13.93;;;9.18;;
39016;SDS011;24784;45.582;5.276;2023-04-03T06:51:29;13.27;;;8.52;;
39016;SDS011;24784;45.582;5.276;2023-04-03T06:53:58;20.90;;;8.93;;
39016;SDS011;24784;45.582;5.276;2023-04-03T06:56:25;12.43;;;7.22;;
39016;SDS011;24784;45.582;5.276;2023-04-03T06:58:51;12.13;;;7.10;;
39016;SDS011;24784;45.582;5.276;2023-04-03T07:01:20;9.73;;;6.68;;
39016;SDS011;24784;45.582;5.276;2023-04-03T07:03:46;11.70;;;6.43;;
39016;SDS011;24784;45.582;5.276;2023-04-03T07:06:14;10.82;;;6.25;;
39016;SDS011;24784;45.582;5.276;2023-04-03T07:08:40;13.65;;;8.23;;
39016;SDS011;24784;45.582;5.276;2023-04-03T07:11:07;12.10;;;7.38;;
39016;SDS011;24784;45.582;5.276;2023-04-03T07:13:34;12.88;;;7.80;;
39016;SDS011;24784;45.582;5.276;2023-04-03T07:16:01;17.85;;;9.20;;
39016;SDS011;24784;45.582;5.276;2023-04-03T07:18:28;17.65;;;10.77;;
39016;SDS011;24784;45.582;5.276;2023-04-03T07:20:54;20.63;;;11.65;;
39016;SDS011;24784;45.582;5.276;2023-04-03T07:23:21;19.98;;;11.68;;
39016;SDS011;24784;45.582;5.276;2023-04-03T07:25:47;16.27;;;10.60;;
39016;SDS011;24784;45.582;5.276;2023-04-03T07:28:15;18.38;;;11.77;;
39016;SDS011;24784;45.582;5.276;2023-04-03T07:30:42;19.15;;;11.68;;
39016;SDS011;24784;45.582;5.276;2023-04-03T07:33:13;17.60;;;11.57;;
39016;SDS011;24784;45.582;5.276;2023-04-03T07:35:42;17.17;;;10.98;;
39016;SDS011;24784;45.582;5.276;2023-04-03T07:38:09;18.83;;;11.68;;
39016;SDS011;24784;45.582;5.276;2023-04-03T07:40:35;26.20;;;12.60;;
39016;SDS011;24784;45.582;5.276;2023-04-03T07:43:01;19.98;;;12.32;;
39016;SDS011;24784;45.582;5.276;2023-04-03T07:45:27;21.42;;;13.00;;
39016;SDS011;24784;45.582;5.276;2023-04-03T07:47:53;18.45;;;12.50;;
39016;SDS011;24784;45.582;5.276;2023-04-03T07:50:19;23.63;;;13.73;;
39016;SDS011;24784;45.582;5.276;2023-04-03T07:52:45;22.05;;;13.80;;
39016;SDS011;24784;45.582;5.276;2023-04-03T07:55:11;25.10;;;14.48;;
39016;SDS011;24784;45.582;5.276;2023-04-03T07:57:37;19.55;;;13.52;;
39016;SDS011;24784;45.582;5.276;2023-04-03T08:00:03;24.95;;;14.32;;
39016;SDS011;24784;45.582;5.276;2023-04-03T08:02:30;21.17;;;13.95;;
39016;SDS011;24784;45.582;5.276;2023-04-03T08:04:57;25.08;;;14.57;;
39016;SDS011;24784;45.582;5.276;2023-04-03T08:07:23;22.45;;;13.68;;
39016;SDS011;24784;45.582;5.276;2023-04-03T08:09:50;26.30;;;14.20;;
39016;SDS011;24784;45.582;5.276;2023-04-03T08:12:16;22.02;;;14.27;;
39016;SDS011;24784;45.582;5.276;2023-04-03T08:14:42;30.67;;;15.02;;
39016;SDS011;24784;45.582;5.276;2023-04-03T08:17:08;24.48;;;14.50;;
39016;SDS011;24784;45.582;5.276;2023-04-03T08:19:37;20.67;;;13.63;;
39016;SDS011;24784;45.582;5.276;2023-04-03T08:22:03;20.92;;;13.60;;
39016;SDS011;24784;45.582;5.276;2023-04-03T08:24:30;22.05;;;13.48;;
39016;SDS011;24784;45.582;5.276;2023-04-03T08:26:59;23.80;;;13.60;;
39016;SDS011;24784;45.582;5.276;2023-04-03T08:29:25;27.33;;;14.05;;
39016;SDS011;24784;45.582;5.276;2023-04-03T08:31:52;19.13;;;13.32;;
39016;SDS011;24784;45.582;5.276;2023-04-03T08:34:17;19.58;;;12.93;;
39016;SDS011;24784;45.582;5.276;2023-04-03T08:36:44;16.50;;;11.93;;
39016;SDS011;24784;45.582;5.276;2023-04-03T08:39:10;19.83;;;13.15;;
39016;SDS011;24784;45.582;5.276;2023-04-03T08:41:37;20.20;;;12.52;;
39016;SDS011;24784;45.582;5.276;2023-04-03T08:46:56;24.52;;;14.63;;
39016;SDS011;24784;45.582;5.276;2023-04-03T08:49:33;17.27;;;12.30;;
39016;SDS011;24784;45.582;5.276;2023-04-03T08:52:17;22.33;;;12.52;;
39016;SDS011;24784;45.582;5.276;2023-04-03T08:54:55;18.90;;;12.07;;
39016;SDS011;24784;45.582;5.276;2023-04-03T08:57:33;20.23;;;12.40;;
39016;SDS011;24784;45.582;5.276;2023-04-03T09:00:02;18.73;;;11.93;;
39016;SDS011;24784;45.582;5.276;2023-04-03T09:02:41;19.13;;;11.93;;
39016;SDS011;24784;45.582;5.276;2023-04-03T09:05:13;21.20;;;12.68;;
39016;SDS011;24784;45.582;5.276;2023-04-03T09:07:49;18.20;;;11.48;;
39016;SDS011;24784;45.582;5.276;2023-04-03T09:10:27;20.70;;;11.57;;
39016;SDS011;24784;45.582;5.276;2023-04-03T09:13:05;17.63;;;11.30;;
39016;SDS011;24784;45.582;5.276;2023-04-03T09:15:58;15.43;;;11.32;;
39016;SDS011;24784;45.582;5.276;2023-04-03T09:18:28;16.17;;;11.20;;
39016;SDS011;24784;45.582;5.276;2023-04-03T09:21:17;14.88;;;11.55;;
39016;SDS011;24784;45.582;5.276;2023-04-03T09:23:51;16.27;;;11.60;;
39016;SDS011;24784;45.582;5.276;2023-04-03T09:26:40;14.38;;;10.50;;
39016;SDS011;24784;45.582;5.276;2023-04-03T09:29:13;15.85;;;11.15;;
39016;SDS011;24784;45.582;5.276;2023-04-03T09:31:44;22.92;;;13.25;;
39016;SDS011;24784;45.582;5.276;2023-04-03T09:34:16;16.52;;;10.55;;
39016;SDS011;24784;45.582;5.276;2023-04-03T09:36:52;14.30;;;9.98;;
39016;SDS011;24784;45.582;5.276;2023-04-03T09:39:25;15.85;;;9.55;;
39016;SDS011;24784;45.582;5.276;2023-04-03T09:41:56;14.52;;;11.05;;
39016;SDS011;24784;45.582;5.276;2023-04-03T09:44:29;13.52;;;9.57;;
39016;SDS011;24784;45.582;5.276;2023-04-03T09:46:57;12.82;;;9.52;;
39016;SDS011;24784;45.582;5.276;2023-04-03T09:49:24;17.95;;;10.40;;
39016;SDS011;24784;45.582;5.276;2023-04-03T09:51:50;14.07;;;9.90;;
39016;SDS011;24784;45.582;5.276;2023-04-03T09:54:36;13.60;;;9.93;;
39016;SDS011;24784;45.582;5.276;2023-04-03T09:57:06;12.27;;;8.82;;
39016;SDS011;24784;45.582;5.276;2023-04-03T09:59:33;12.88;;;8.18;;
39016;SDS011;24784;45.582;5.276;2023-04-03T10:02:02;15.30;;;10.73;;
39016;SDS011;24784;45.582;5.276;2023-04-03T10:04:41;23.25;;;12.73;;
39016;SDS011;24784;45.582;5.276;2023-04-03T10:09:59;14.30;;;10.52;;
39016;SDS011;24784;45.582;5.276;2023-04-03T10:12:28;19.90;;;12.82;;
39016;SDS011;24784;45.582;5.276;2023-04-03T10:14:58;15.27;;;10.55;;
39016;SDS011;24784;45.582;5.276;2023-04-03T10:25:40;15.95;;;9.82;;
39016;SDS011;24784;45.582;5.276;2023-04-03T10:28:12;17.30;;;11.27;;
39016;SDS011;24784;45.582;5.276;2023-04-03T10:31:11;18.13;;;12.55;;
39016;SDS011;24784;45.582;5.276;2023-04-03T10:39:35;17.42;;;12.48;;
39016;SDS011;24784;45.582;5.276;2023-04-03T10:42:23;18.38;;;12.15;;
39016;SDS011;24784;45.582;5.276;2023-04-03T10:45:14;19.20;;;11.02;;
39016;SDS011;24784;45.582;5.276;2023-04-03T10:51:25;14.85;;;10.88;;
39016;SDS011;24784;45.582;5.276;2023-04-03T10:54:15;12.30;;;8.90;;
39016;SDS011;24784;45.582;5.276;2023-04-03T10:56:52;15.02;;;9.63;;
39016;SDS011;24784;45.582;5.276;2023-04-03T10:59:32;13.35;;;8.98;;
39016;SDS011;24784;45.582;5.276;2023-04-03T11:02:04;15.82;;;10.70;;
39016;SDS011;24784;45.582;5.276;2023-04-03T11:04:34;16.80;;;11.38;;
39016;SDS011;24784;45.582;5.276;2023-04-03T11:07:16;15.43;;;10.68;;
39016;SDS011;24784;45.582;5.276;2023-04-03T11:09:50;17.45;;;12.40;;
39016;SDS011;24784;45.582;5.276;2023-04-03T11:12:35;16.67;;;12.02;;
39016;SDS011;24784;45.582;5.276;2023-04-03T11:15:11;16.98;;;10.52;;
39016;SDS011;24784;45.582;5.276;2023-04-03T11:17:41;14.57;;;9.95;;
39016;SDS011;24784;45.582;5.276;2023-04-03T11:23:25;13.23;;;9.93;;
39016;SDS011;24784;45.582;5.276;2023-04-03T11:25:54;15.48;;;9.63;;
39016;SDS011;24784;45.582;5.276;2023-04-03T11:28:26;17.15;;;9.23;;
39016;SDS011;24784;45.582;5.276;2023-04-03T11:36:12;19.40;;;11.05;;
39016;SDS011;24784;45.582;5.276;2023-04-03T11:38:47;18.30;;;10.15;;
39016;SDS011;24784;45.582;5.276;2023-04-03T11:41:16;14.52;;;9.73;;
39016;SDS011;24784;45.582;5.276;2023-04-03T11:47:00;12.50;;;9.70;;
39016;SDS011;24784;45.582;5.276;2023-04-03T12:13:42;13.75;;;9.30;;
39016;SDS011;24784;45.582;5.276;2023-04-03T12:19:13;14.15;;;9.45;;
39016;SDS011;24784;45.582;5.276;2023-04-03T12:34:38;14.02;;;9.40;;
39016;SDS011;24784;45.582;5.276;2023-04-03T12:46:24;12.88;;;9.30;;
39016;SDS011;24784;45.582;5.276;2023-04-03T12:48:54;16.30;;;10.20;;
39016;SDS011;24784;45.582;5.276;2023-04-03T12:51:34;12.63;;;10.07;;
39016;SDS011;24784;45.582;5.276;2023-04-03T12:54:27;16.70;;;10.52;;
39016;SDS011;24784;45.582;5.276;2023-04-03T12:57:11;12.70;;;9.65;;
39016;SDS011;24784;45.582;5.276;2023-04-03T12:59:49;13.65;;;9.40;;
39016;SDS011;24784;45.582;5.276;2023-04-03T13:02:22;14.35;;;9.48;;
39016;SDS011;24784;45.582;5.276;2023-04-03T13:04:55;11.63;;;8.68;;
39016;SDS011;24784;45.582;5.276;2023-04-03T13:07:30;10.30;;;8.45;;
39016;SDS011;24784;45.582;5.276;2023-04-03T13:12:47;10.77;;;8.00;;
39016;SDS011;24784;45.582;5.276;2023-04-03T13:17:43;13.30;;;9.20;;
39016;SDS011;24784;45.582;5.276;2023-04-03T13:20:31;12.77;;;9.07;;
39016;SDS011;24784;45.582;5.276;2023-04-03T13:25:30;9.95;;;7.72;;
39016;SDS011;24784;45.582;5.276;2023-04-03T13:27:59;12.27;;;8.63;;
39016;SDS011;24784;45.582;5.276;2023-04-03T13:30:31;10.55;;;8.05;;
39016;SDS011;24784;45.582;5.276;2023-04-03T13:33:02;9.18;;;7.38;;
39016;SDS011;24784;45.582;5.276;2023-04-03T13:35:35;11.50;;;8.80;;
39016;SDS011;24784;45.582;5.276;2023-04-03T13:38:06;10.77;;;7.82;;
39016;SDS011;24784;45.582;5.276;2023-04-03T13:40:51;10.32;;;7.68;;
39016;SDS011;24784;45.582;5.276;2023-04-03T13:43:20;11.15;;;8.15;;
39016;SDS011;24784;45.582;5.276;2023-04-03T13:48:25;10.18;;;7.05;;
39016;SDS011;24784;45.582;5.276;2023-04-03T13:51:02;7.72;;;6.35;;
39016;SDS011;24784;45.582;5.276;2023-04-03T13:53:31;10.77;;;6.95;;
39016;SDS011;24784;45.582;5.276;2023-04-03T13:58:31;11.68;;;6.82;;
39016;SDS011;24784;45.582;5.276;2023-04-03T14:01:15;14.13;;;7.60;;
39016;SDS011;24784;45.582;5.276;2023-04-03T14:03:59;10.52;;;6.90;;
39016;SDS011;24784;45.582;5.276;2023-04-03T14:06:27;9.90;;;6.22;;
39016;SDS011;24784;45.582;5.276;2023-04-03T14:08:54;9.50;;;6.05;;
39016;SDS011;24784;45.582;5.276;2023-04-03T14:11:24;7.80;;;5.97;;
39016;SDS011;24784;45.582;5.276;2023-04-03T14:16:23;7.53;;;5.60;;
39016;SDS011;24784;45.582;5.276;2023-04-03T14:18:52;8.98;;;5.43;;
39016;SDS011;24784;45.582;5.276;2023-04-03T14:21:19;7.75;;;5.68;;
39016;SDS011;24784;45.582;5.276;2023-04-03T14:23:46;7.15;;;5.85;;
39016;SDS011;24784;45.582;5.276;2023-04-03T14:26:19;10.52;;;5.85;;
39016;SDS011;24784;45.582;5.276;2023-04-03T14:28:48;10.25;;;5.90;;
39016;SDS011;24784;45.582;5.276;2023-04-03T14:31:17;8.50;;;6.47;;
39016;SDS011;24784;45.582;5.276;2023-04-03T14:33:44;6.72;;;4.80;;
39016;SDS011;24784;45.582;5.276;2023-04-03T14:38:40;8.13;;;5.22;;
39016;SDS011;24784;45.582;5.276;2023-04-03T14:41:07;6.38;;;5.07;;
39016;SDS011;24784;45.582;5.276;2023-04-03T14:43:33;6.55;;;5.28;;
39016;SDS011;24784;45.582;5.276;2023-04-03T14:45:59;7.47;;;5.72;;
39016;SDS011;24784;45.582;5.276;2023-04-03T14:48:25;7.78;;;4.97;;
39016;SDS011;24784;45.582;5.276;2023-04-03T14:50:52;11.32;;;6.38;;
39016;SDS011;24784;45.582;5.276;2023-04-03T14:53:19;9.52;;;5.10;;
39016;SDS011;24784;45.582;5.276;2023-04-03T14:55:47;7.57;;;5.57;;
39016;SDS011;24784;45.582;5.276;2023-04-03T14:58:15;10.25;;;5.88;;
39016;SDS011;24784;45.582;5.276;2023-04-03T15:00:43;7.00;;;5.10;;
39016;SDS011;24784;45.582;5.276;2023-04-03T15:03:27;8.43;;;5.30;;
39016;SDS011;24784;45.582;5.276;2023-04-03T15:05:53;9.90;;;5.00;;
39016;SDS011;24784;45.582;5.276;2023-04-03T15:08:26;6.70;;;4.50;;
39016;SDS011;24784;45.582;5.276;2023-04-03T15:10:57;7.07;;;5.32;;
39016;SDS011;24784;45.582;5.276;2023-04-03T15:13:23;9.23;;;5.13;;
39016;SDS011;24784;45.582;5.276;2023-04-03T15:15:50;6.90;;;4.68;;
39016;SDS011;24784;45.582;5.276;2023-04-03T15:18:18;9.18;;;5.10;;
39016;SDS011;24784;45.582;5.276;2023-04-03T15:20:49;11.68;;;5.43;;
39016;SDS011;24784;45.582;5.276;2023-04-03T15:23:15;8.80;;;5.05;;
39016;SDS011;24784;45.582;5.276;2023-04-03T15:25:45;5.78;;;5.13;;
39016;SDS011;24784;45.582;5.276;2023-04-03T15:28:22;5.88;;;4.85;;
39016;SDS011;24784;45.582;5.276;2023-04-03T15:31:07;10.77;;;4.88;;
39016;SDS011;24784;45.582;5.276;2023-04-03T15:33:34;6.43;;;4.95;;
39016;SDS011;24784;45.582;5.276;2023-04-03T15:36:01;7.80;;;4.68;;
39016;SDS011;24784;45.582;5.276;2023-04-03T15:38:27;6.88;;;4.60;;
39016;SDS011;24784;45.582;5.276;2023-04-03T15:40:54;7.93;;;4.40;;
39016;SDS011;24784;45.582;5.276;2023-04-03T15:43:20;7.28;;;4.95;;
39016;SDS011;24784;45.582;5.276;2023-04-03T15:45:46;5.90;;;4.65;;
39016;SDS011;24784;45.582;5.276;2023-04-03T15:48:14;6.55;;;4.80;;
39016;SDS011;24784;45.582;5.276;2023-04-03T15:50:41;8.93;;;4.32;;
39016;SDS011;24784;45.582;5.276;2023-04-03T15:53:07;6.25;;;4.32;;
39016;SDS011;24784;45.582;5.276;2023-04-03T15:55:34;5.03;;;4.03;;
39016;SDS011;24784;45.582;5.276;2023-04-03T15:58:02;8.57;;;4.13;;
39016;SDS011;24784;45.582;5.276;2023-04-03T16:00:28;5.82;;;3.90;;
39016;SDS011;24784;45.582;5.276;2023-04-03T16:02:58;6.68;;;3.70;;
39016;SDS011;24784;45.582;5.276;2023-04-03T16:05:26;5.93;;;3.90;;
39016;SDS011;24784;45.582;5.276;2023-04-03T16:07:53;7.20;;;4.18;;
39016;SDS011;24784;45.582;5.276;2023-04-03T16:10:20;6.40;;;4.05;;
39016;SDS011;24784;45.582;5.276;2023-04-03T16:12:46;5.15;;;3.90;;
39016;SDS011;24784;45.582;5.276;2023-04-03T16:15:12;6.60;;;4.72;;
39016;SDS011;24784;45.582;5.276;2023-04-03T16:17:38;4.90;;;4.03;;
39016;SDS011;24784;45.582;5.276;2023-04-03T16:20:08;6.88;;;4.00;;
39016;SDS011;24784;45.582;5.276;2023-04-03T16:22:35;5.93;;;4.03;;
39016;SDS011;24784;45.582;5.276;2023-04-03T16:25:01;5.68;;;3.58;;
39016;SDS011;24784;45.582;5.276;2023-04-03T16:27:28;6.32;;;3.47;;
39016;SDS011;24784;45.582;5.276;2023-04-03T16:29:56;5.35;;;3.17;;
39016;SDS011;24784;45.582;5.276;2023-04-03T16:32:22;5.30;;;3.65;;